createdAt,value
2018-08-03T00:02:09.692Z,19.77
2018-08-03T00:04:37.619Z,21.60
2018-08-03T00:07:05.616Z,19.80
2018-08-03T00:09:33.375Z,22.95
2018-08-03T00:12:01.158Z,25.20
2018-08-03T00:14:28.941Z,19.70
2018-08-03T00:16:56.856Z,19.00
2018-08-03T00:19:24.640Z,25.12
2018-08-03T00:21:52.391Z,22.40
2018-08-03T00:24:20.147Z,21.48
2018-08-03T00:26:47.995Z,23.98
2018-08-03T00:29:15.797Z,23.27
2018-08-03T00:31:43.596Z,23.38
2018-08-03T00:34:11.355Z,22.00
2018-08-03T00:37:14.361Z,24.12
2018-08-03T00:39:45.719Z,27.15
2018-08-03T00:42:13.516Z,24.40
2018-08-03T00:44:41.242Z,25.48
2018-08-03T00:47:08.999Z,26.27
2018-08-03T00:49:36.771Z,31.55
2018-08-03T00:52:04.523Z,28.20
2018-08-03T00:54:32.347Z,28.35
2018-08-03T00:57:00.091Z,33.05
2018-08-03T00:59:27.867Z,35.83
2018-08-03T01:01:55.660Z,40.05
2018-08-03T01:04:23.415Z,42.65
2018-08-03T01:06:51.214Z,38.92
2018-08-03T01:09:18.982Z,36.70
2018-08-03T01:11:46.709Z,31.73
2018-08-03T01:14:14.469Z,33.73
2018-08-03T01:17:17.124Z,38.42
2018-08-03T01:19:44.885Z,32.20
2018-08-03T01:22:12.604Z,34.90
2018-08-03T01:24:40.375Z,27.70
2018-08-03T01:27:08.183Z,27.13
2018-08-03T01:29:36.014Z,30.30
2018-08-03T01:32:04.738Z,38.95
2018-08-03T01:34:32.496Z,37.23
2018-08-03T01:37:00.285Z,39.25
2018-08-03T01:39:28.008Z,35.13
2018-08-03T01:41:55.730Z,38.73
2018-08-03T01:44:23.436Z,51.53
2018-08-03T01:46:51.433Z,78.90
2018-08-03T01:49:19.340Z,53.28
2018-08-03T01:51:47.262Z,47.25
2018-08-03T01:54:15.288Z,49.35
2018-08-03T01:56:43.164Z,38.63
2018-08-03T01:59:11.157Z,35.05
2018-08-03T02:01:39.045Z,43.28
2018-08-03T02:04:06.944Z,45.43
2018-08-03T02:06:34.864Z,44.03
2018-08-03T02:09:04.200Z,53.42
2018-08-03T02:11:32.058Z,53.05
2018-08-03T02:14:00.037Z,51.80
2018-08-03T02:16:27.930Z,55.33
2018-08-03T02:18:55.916Z,42.62
2018-08-03T02:21:23.810Z,36.73
2018-08-03T02:23:51.752Z,42.80
2018-08-03T02:26:19.657Z,39.30
2018-08-03T02:28:47.540Z,42.48
2018-08-03T02:31:15.463Z,35.70
2018-08-03T02:33:43.454Z,40.73
2018-08-03T02:36:11.312Z,46.85
2018-08-03T02:38:39.227Z,50.52
2018-08-03T02:41:07.138Z,61.35
2018-08-03T02:43:35.098Z,61.60
2018-08-03T02:48:55.390Z,59.08
2018-08-03T02:51:23.132Z,57.73
2018-08-03T02:53:50.856Z,62.38
2018-08-03T02:56:18.640Z,77.90
2018-08-03T02:58:46.427Z,57.33
2018-08-03T03:01:14.159Z,56.33
2018-08-03T03:03:41.904Z,52.23
2018-08-03T03:06:09.652Z,63.00
2018-08-03T03:08:37.430Z,74.82
2018-08-03T03:11:05.144Z,69.77
2018-08-03T03:13:32.917Z,79.37
2018-08-03T03:16:00.660Z,126.62
2018-08-03T03:18:29.489Z,68.90
2018-08-03T03:20:57.224Z,69.32
2018-08-03T03:23:25.053Z,93.00
2018-08-03T03:25:52.825Z,51.08
2018-08-03T03:28:20.570Z,46.45
2018-08-03T03:30:48.310Z,46.30
2018-08-03T03:33:16.079Z,51.37
2018-08-03T03:35:43.791Z,48.68
2018-08-03T03:38:11.537Z,41.58
2018-08-03T03:40:39.266Z,53.58
2018-08-03T03:43:07.072Z,64.42
2018-08-03T03:45:34.936Z,71.35
2018-08-03T03:48:02.624Z,60.25
2018-08-03T03:50:30.414Z,62.60
2018-08-03T03:52:58.178Z,77.40
2018-08-03T03:55:25.911Z,92.25
2018-08-03T03:57:53.693Z,100.42
2018-08-03T04:00:21.469Z,76.30
2018-08-03T04:02:49.220Z,100.92
2018-08-03T04:05:17.012Z,78.42
2018-08-03T04:07:44.764Z,100.95
2018-08-03T04:10:12.555Z,84.42
2018-08-03T04:12:48.366Z,84.30
2018-08-03T04:15:16.132Z,66.50
2018-08-03T04:17:43.930Z,67.03
2018-08-03T04:20:11.671Z,72.50
2018-08-03T04:22:39.419Z,88.58
2018-08-03T04:25:07.230Z,68.85
2018-08-03T04:27:35.118Z,87.47
2018-08-03T04:30:03.039Z,88.60
2018-08-03T04:32:30.752Z,98.42
2018-08-03T04:34:58.515Z,110.97
2018-08-03T04:37:26.243Z,101.72
2018-08-03T04:39:54.395Z,80.30
2018-08-03T04:42:22.333Z,210.48
2018-08-03T04:44:49.953Z,77.78
2018-08-03T04:47:17.735Z,111.30
2018-08-03T04:49:45.463Z,74.20
2018-08-03T04:55:49.723Z,52.73
2018-08-03T04:58:17.636Z,45.25
2018-08-03T05:00:45.494Z,27.48
2018-08-03T05:03:13.470Z,25.12
2018-08-03T05:05:41.322Z,32.13
2018-08-03T05:08:09.381Z,20.92
2018-08-03T05:10:37.224Z,24.57
2018-08-03T05:13:05.220Z,25.32
2018-08-03T05:15:33.304Z,24.87
2018-08-03T05:18:01.195Z,24.60
2018-08-03T05:20:29.187Z,24.55
2018-08-03T05:22:57.129Z,23.22
2018-08-03T05:25:25.020Z,24.05
2018-08-03T05:27:53.010Z,25.68
2018-08-03T05:30:20.925Z,24.10
2018-08-03T05:32:48.964Z,24.20
2018-08-03T05:35:16.860Z,22.35
2018-08-03T05:37:44.880Z,21.35
2018-08-03T05:40:12.772Z,21.37
2018-08-03T05:42:40.779Z,20.27
2018-08-03T05:45:08.979Z,31.52
2018-08-03T05:47:36.934Z,23.02
2018-08-03T05:50:05.270Z,22.05
2018-08-03T05:52:33.225Z,21.90
2018-08-03T05:55:01.050Z,21.90
2018-08-03T05:57:28.840Z,25.45
2018-08-03T05:59:56.697Z,22.70
2018-08-03T06:02:24.752Z,23.38
2018-08-03T06:04:52.648Z,22.67
2018-08-03T06:07:20.618Z,30.17
2018-08-03T06:09:48.423Z,24.35
2018-08-03T06:12:19.183Z,27.70
2018-08-03T06:14:46.968Z,27.07
2018-08-03T06:17:14.734Z,23.22
2018-08-03T06:19:42.496Z,24.37
2018-08-03T06:22:10.227Z,23.07
2018-08-03T06:24:37.983Z,28.47
2018-08-03T06:27:05.729Z,24.37
2018-08-03T06:29:33.513Z,23.45
2018-08-03T06:32:01.277Z,23.12
2018-08-03T06:34:29.015Z,22.90
2018-08-03T06:36:56.778Z,23.22
2018-08-03T06:39:24.504Z,24.65
2018-08-03T06:41:52.231Z,23.27
2018-08-03T06:44:19.987Z,23.73
2018-08-03T06:46:47.766Z,25.72
2018-08-03T06:49:15.524Z,23.80
2018-08-03T06:51:43.440Z,22.27
2018-08-03T06:54:11.383Z,24.52
2018-08-03T06:56:39.252Z,24.45
2018-08-03T06:59:07.249Z,32.33
2018-08-03T07:01:35.135Z,22.55
2018-08-03T07:04:03.076Z,25.08
2018-08-03T07:06:30.985Z,22.80
2018-08-03T07:08:58.881Z,21.75
2018-08-03T07:11:26.779Z,19.37
2018-08-03T07:13:54.778Z,18.30
2018-08-03T07:16:22.695Z,20.30
2018-08-03T07:18:50.691Z,19.27
2018-08-03T07:21:23.937Z,19.27
2018-08-03T07:23:51.972Z,19.27
2018-08-03T07:26:19.895Z,20.05
2018-08-03T07:28:47.981Z,20.32
2018-08-03T07:31:15.905Z,18.80
2018-08-03T07:33:44.042Z,18.05
2018-08-03T07:36:11.924Z,19.07
2018-08-03T07:38:39.906Z,21.70
2018-08-03T07:41:07.828Z,19.80
2018-08-03T07:43:35.834Z,18.48
2018-08-03T07:46:03.715Z,14.87
2018-08-03T07:48:31.630Z,15.03
2018-08-03T07:53:24.762Z,17.60
2018-08-03T07:55:52.557Z,16.10
2018-08-03T07:58:20.347Z,17.42
2018-08-03T08:00:48.110Z,17.50
2018-08-03T08:03:15.894Z,19.82
2018-08-03T08:05:43.668Z,20.57
2018-08-03T08:08:11.393Z,16.93
2018-08-03T08:10:39.150Z,24.47
2018-08-03T08:13:06.938Z,11.25
2018-08-03T08:15:34.776Z,10.40
2018-08-03T08:18:03.541Z,13.00
2018-08-03T08:20:31.312Z,8.25
2018-08-03T08:22:59.035Z,10.60
2018-08-03T08:25:26.746Z,7.17
2018-08-03T08:27:54.482Z,8.88
2018-08-03T08:30:22.203Z,10.08
2018-08-03T08:32:49.974Z,6.35
2018-08-03T08:35:17.763Z,11.30
2018-08-03T08:37:45.540Z,8.73
2018-08-03T08:40:13.339Z,13.78
2018-08-03T08:42:41.103Z,14.90
2018-08-03T08:45:08.929Z,7.05
2018-08-03T08:47:36.736Z,5.30
2018-08-03T08:50:05.644Z,5.62
2018-08-03T08:52:33.421Z,3.45
2018-08-03T08:55:01.232Z,7.70
2018-08-03T08:57:28.989Z,3.00
2018-08-03T08:59:56.796Z,2.67
2018-08-03T09:02:24.556Z,2.55
2018-08-03T09:04:53.106Z,4.50
2018-08-03T09:07:20.927Z,4.90
2018-08-03T09:09:49.731Z,4.10
2018-08-03T09:12:17.484Z,6.78
2018-08-03T09:14:45.221Z,5.20
2018-08-03T09:17:12.940Z,2.80
2018-08-03T09:20:14.677Z,3.25
2018-08-03T09:22:42.523Z,2.80
2018-08-03T09:25:10.301Z,4.30
2018-08-03T09:27:38.079Z,4.92
2018-08-03T09:30:08.116Z,8.93
2018-08-03T09:32:35.866Z,3.20
2018-08-03T09:35:03.763Z,5.00
2018-08-03T09:37:31.566Z,6.60
2018-08-03T09:39:59.301Z,13.32
2018-08-03T09:42:27.096Z,7.35
2018-08-03T09:44:54.921Z,7.17
2018-08-03T09:47:22.835Z,5.53
2018-08-03T09:49:50.705Z,7.40
2018-08-03T09:52:26.306Z,7.65
2018-08-03T09:54:54.148Z,8.60
2018-08-03T09:57:23.002Z,6.47
2018-08-03T09:59:50.827Z,7.90
2018-08-03T10:02:19.722Z,9.40
2018-08-03T10:04:47.653Z,5.00
2018-08-03T10:07:15.676Z,8.90
2018-08-03T10:09:43.575Z,6.72
2018-08-03T10:12:11.451Z,18.32
2018-08-03T10:14:39.304Z,6.42
2018-08-03T10:17:07.208Z,7.90
2018-08-03T10:19:35.124Z,10.10
2018-08-03T10:22:02.966Z,6.85
2018-08-03T10:24:30.921Z,12.58
2018-08-03T10:26:58.815Z,9.05
2018-08-03T10:35:32.882Z,9.00
2018-08-03T10:38:00.782Z,7.35
2018-08-03T10:40:28.579Z,8.85
2018-08-03T10:42:56.439Z,7.05
2018-08-03T10:45:24.182Z,7.00
2018-08-03T10:47:51.988Z,7.95
2018-08-03T10:50:19.759Z,8.25
2018-08-03T10:52:47.543Z,7.67
2018-08-03T10:55:15.299Z,7.72
2018-08-03T10:57:43.032Z,8.65
2018-08-03T11:00:35.318Z,6.45
2018-08-03T11:03:03.137Z,6.03
2018-08-03T11:05:30.939Z,6.53
2018-08-03T11:07:59.737Z,8.65
2018-08-03T11:10:27.502Z,9.75
2018-08-03T11:13:30.870Z,5.50
2018-08-03T11:15:58.807Z,9.93
2018-08-03T11:18:26.597Z,8.48
2018-08-03T11:20:54.419Z,6.05
2018-08-03T11:23:22.162Z,6.72
2018-08-03T11:25:50.943Z,8.35
2018-08-03T11:28:18.739Z,6.17
2018-08-03T11:30:46.509Z,9.30
2018-08-03T11:33:14.267Z,6.45
2018-08-03T11:35:42.079Z,5.42
2018-08-03T11:38:09.832Z,9.10
2018-08-03T11:40:37.577Z,6.80
2018-08-03T11:43:05.479Z,6.78
2018-08-03T11:45:33.278Z,10.63
2018-08-03T11:48:02.060Z,5.62
2018-08-03T11:50:29.861Z,6.20
2018-08-03T11:52:57.629Z,7.70
2018-08-03T11:55:25.394Z,7.37
2018-08-03T11:57:54.608Z,7.00
2018-08-03T12:00:22.561Z,8.88
2018-08-03T12:02:50.473Z,8.13
2018-08-03T12:05:18.434Z,9.93
2018-08-03T12:07:46.339Z,7.00
2018-08-03T12:10:14.222Z,5.25
2018-08-03T12:12:42.081Z,8.15
2018-08-03T12:15:10.074Z,7.12
2018-08-03T12:17:37.997Z,8.20
2018-08-03T12:20:17.010Z,9.60
2018-08-03T12:22:44.876Z,5.92
2018-08-03T12:25:21.422Z,6.35
2018-08-03T12:27:49.340Z,9.10
2018-08-03T12:30:18.252Z,9.03
2018-08-03T12:32:46.162Z,11.18
2018-08-03T12:35:17.708Z,8.65
2018-08-03T12:37:45.753Z,11.33
2018-08-03T12:40:13.764Z,9.33
2018-08-03T12:42:41.700Z,6.25
2018-08-03T12:45:09.691Z,6.90
2018-08-03T12:47:37.599Z,7.08
2018-08-03T12:50:05.529Z,7.87
2018-08-03T12:52:33.523Z,8.80
2018-08-03T12:55:01.464Z,11.18
2018-08-03T12:57:29.305Z,9.10
2018-08-03T12:59:57.059Z,8.68
2018-08-03T13:02:24.861Z,6.30
2018-08-03T13:04:53.633Z,4.60
2018-08-03T13:07:21.452Z,6.55
2018-08-03T13:09:50.494Z,7.45
2018-08-03T13:12:18.349Z,8.38
2018-08-03T13:14:46.262Z,5.17
2018-08-03T13:17:14.122Z,9.55
2018-08-03T13:19:42.001Z,6.28
2018-08-03T13:22:20.843Z,7.05
2018-08-03T13:24:48.789Z,12.33
2018-08-03T13:27:17.178Z,8.73
2018-08-03T13:29:45.020Z,7.70
2018-08-03T13:32:12.967Z,6.30
2018-08-03T13:34:40.777Z,5.78
2018-08-03T13:37:08.789Z,3.55
2018-08-03T13:39:36.622Z,4.53
2018-08-03T13:42:04.534Z,4.20
2018-08-03T13:44:32.612Z,2.90
2018-08-03T13:47:00.555Z,3.58
2018-08-03T13:49:28.574Z,5.35
2018-08-03T13:51:56.440Z,5.10
2018-08-03T13:54:24.359Z,6.97
2018-08-03T13:56:52.120Z,8.63
2018-08-03T13:59:19.904Z,5.30
2018-08-03T14:01:58.794Z,4.72
2018-08-03T14:04:26.630Z,6.60
2018-08-03T14:06:54.436Z,4.62
2018-08-03T14:09:22.219Z,5.87
2018-08-03T14:11:50.022Z,5.90
2018-08-03T14:14:17.815Z,4.83
2018-08-03T14:16:46.632Z,6.22
2018-08-03T14:19:14.419Z,5.83
2018-08-03T14:21:42.221Z,5.53
2018-08-03T14:24:09.943Z,6.05
2018-08-03T14:26:37.735Z,5.70
2018-08-03T14:29:05.544Z,5.45
2018-08-03T14:31:33.374Z,5.55
2018-08-03T14:34:01.157Z,6.75
2018-08-03T14:36:28.920Z,7.45
2018-08-03T14:38:56.795Z,6.05
2018-08-03T14:41:24.623Z,5.65
2018-08-03T14:43:53.445Z,6.37
2018-08-03T14:46:21.223Z,5.55
2018-08-03T14:48:49.028Z,7.25
2018-08-03T14:51:16.786Z,5.97
2018-08-03T14:53:44.560Z,6.03
2018-08-03T14:56:13.055Z,5.10
2018-08-03T14:58:40.979Z,4.97
2018-08-03T15:01:08.831Z,6.15
2018-08-03T15:03:36.623Z,6.62
2018-08-03T15:06:04.496Z,4.42
2018-08-03T15:08:32.269Z,6.50
2018-08-03T15:11:00.757Z,9.55
2018-08-03T15:13:28.628Z,5.45
2018-08-03T15:15:56.445Z,6.15
2018-08-03T15:18:24.194Z,7.28
2018-08-03T15:20:52.017Z,6.28
2018-08-03T15:23:19.747Z,10.98
2018-08-03T15:25:47.482Z,6.10
2018-08-03T15:28:15.218Z,6.47
2018-08-03T15:30:42.964Z,6.90
2018-08-03T15:33:10.745Z,9.03
2018-08-03T15:35:38.544Z,7.35
2018-08-03T15:38:06.366Z,5.55
2018-08-03T15:40:34.131Z,6.17
2018-08-03T15:43:02.428Z,7.85
2018-08-03T15:45:32.218Z,5.53
2018-08-03T15:48:00.541Z,7.58
2018-08-03T15:50:28.881Z,5.22
2018-08-03T15:52:57.195Z,5.53
2018-08-03T15:55:25.500Z,6.55
2018-08-03T15:57:53.837Z,7.17
2018-08-03T16:00:22.205Z,6.42
2018-08-03T16:02:50.539Z,9.43
2018-08-03T16:05:18.847Z,6.10
2018-08-03T16:07:47.126Z,9.15
2018-08-03T16:10:15.567Z,6.15
2018-08-03T16:12:43.817Z,11.63
2018-08-03T16:15:11.962Z,4.75
2018-08-03T16:17:40.138Z,8.58
2018-08-03T16:20:08.406Z,4.37
2018-08-03T16:22:36.613Z,3.20
2018-08-03T16:25:05.555Z,2.30
2018-08-03T16:27:33.717Z,3.23
2018-08-03T16:30:01.904Z,5.83
2018-08-03T16:32:32.697Z,2.62
2018-08-03T16:35:01.052Z,2.80
2018-08-03T16:37:29.392Z,1.22
2018-08-03T16:39:57.584Z,2.67
2018-08-03T16:42:25.761Z,2.25
2018-08-03T16:44:53.956Z,1.25
2018-08-03T16:47:22.287Z,1.85
2018-08-03T16:49:50.505Z,2.52
2018-08-03T16:52:23.480Z,0.72
2018-08-03T16:54:52.028Z,1.00
2018-08-03T16:57:21.017Z,2.42
2018-08-03T16:59:52.779Z,3.50
2018-08-03T17:02:21.304Z,2.52
2018-08-03T17:04:49.572Z,2.47
2018-08-03T17:07:18.057Z,1.17
2018-08-03T17:09:46.647Z,0.70
2018-08-03T17:12:15.066Z,1.65
2018-08-03T17:14:43.500Z,1.35
2018-08-03T17:17:12.003Z,1.65
2018-08-03T17:19:40.375Z,2.77
2018-08-03T17:22:08.886Z,1.15
2018-08-03T17:24:37.242Z,1.75
2018-08-03T17:27:05.780Z,4.17
2018-08-03T17:29:34.038Z,2.08
2018-08-03T17:32:02.503Z,2.65
2018-08-03T17:34:30.858Z,0.93
2018-08-03T17:36:59.227Z,2.17
2018-08-03T17:39:29.790Z,1.02
2018-08-03T17:41:58.274Z,4.80
2018-08-03T17:44:26.748Z,1.40
2018-08-03T17:46:55.075Z,3.65
2018-08-03T17:49:30.100Z,3.95
2018-08-03T17:51:58.442Z,1.20
2018-08-03T17:54:26.887Z,2.47
2018-08-03T17:56:55.205Z,1.67
2018-08-03T17:59:23.713Z,5.00
2018-08-03T18:01:52.042Z,2.10
2018-08-03T18:04:26.338Z,1.85
2018-08-03T18:10:08.703Z,2.05
2018-08-03T18:12:38.123Z,1.22
2018-08-03T18:15:07.384Z,2.77
2018-08-03T18:17:36.950Z,0.60
2018-08-03T18:20:05.615Z,1.65
2018-08-03T18:22:34.085Z,5.25
2018-08-03T18:25:14.270Z,2.08
2018-08-03T18:30:20.948Z,2.70
2018-08-03T18:32:48.702Z,0.75
2018-08-03T18:35:16.459Z,1.80
2018-08-03T18:37:44.404Z,1.30
2018-08-03T18:40:12.188Z,2.37
2018-08-03T18:42:40.061Z,1.10
2018-08-03T18:45:08.276Z,1.12
2018-08-03T18:47:36.208Z,13.75
2018-08-03T18:50:04.019Z,4.55
2018-08-03T18:52:31.954Z,6.87
2018-08-03T18:54:59.771Z,3.15
2018-08-03T18:57:27.745Z,0.70
2018-08-03T18:59:55.844Z,2.95
2018-08-03T19:02:23.655Z,3.60
2018-08-03T19:04:51.514Z,1.22
2018-08-03T19:07:41.011Z,1.77
2018-08-03T19:10:10.753Z,4.03
2018-08-03T19:12:46.164Z,1.07
2018-08-03T19:15:15.188Z,0.65
2018-08-03T19:17:43.013Z,1.60
2018-08-03T19:20:10.864Z,0.72
2018-08-03T19:22:38.881Z,2.52
2018-08-03T19:25:08.485Z,1.47
2018-08-03T19:27:36.389Z,4.65
2018-08-03T19:30:04.672Z,0.80
2018-08-03T19:32:32.517Z,4.10
2018-08-03T19:35:00.331Z,4.15
2018-08-03T19:37:28.278Z,1.35
2018-08-03T19:39:56.034Z,2.55
2018-08-03T19:42:28.534Z,2.98
2018-08-03T19:44:56.369Z,0.70
2018-08-03T19:47:25.292Z,1.02
2018-08-03T19:49:53.105Z,2.25
2018-08-03T19:52:20.875Z,2.27
2018-08-03T19:54:52.291Z,1.65
2018-08-03T19:57:20.221Z,1.05
2018-08-03T19:59:48.092Z,2.08
2018-08-03T20:02:16.089Z,2.85
2018-08-03T20:04:43.928Z,2.10
2018-08-03T20:07:11.827Z,1.30
2018-08-03T20:09:50.425Z,3.05
2018-08-03T20:12:18.308Z,2.30
2018-08-03T20:14:46.222Z,2.35
2018-08-03T20:17:14.100Z,2.90
2018-08-03T20:19:42.047Z,1.80
2018-08-03T20:22:14.476Z,3.45
2018-08-03T20:24:43.424Z,3.45
2018-08-03T20:27:11.319Z,2.87
2018-08-03T20:29:39.223Z,5.25
2018-08-03T20:32:07.273Z,7.08
2018-08-03T20:34:35.095Z,5.35
2018-08-03T20:37:02.987Z,5.08
2018-08-03T20:39:30.983Z,3.42
2018-08-03T20:41:58.883Z,6.55
2018-08-03T20:44:26.867Z,2.58
2018-08-03T20:46:54.854Z,4.45
2018-08-03T20:49:22.880Z,1.40
2018-08-03T20:51:50.776Z,4.62
2018-08-03T20:54:18.673Z,5.95
2018-08-03T20:56:46.544Z,1.55
2018-08-03T20:59:14.430Z,5.15
2018-08-03T21:01:42.295Z,5.90
2018-08-03T21:04:10.281Z,2.42
2018-08-03T21:06:38.178Z,2.50
2018-08-03T21:12:31.082Z,4.83
2018-08-03T21:14:58.917Z,3.98
2018-08-03T21:17:26.678Z,3.35
2018-08-03T21:19:54.547Z,4.97
2018-08-03T21:22:22.348Z,2.37
2018-08-03T21:24:50.256Z,5.58
2018-08-03T21:27:18.050Z,5.03
2018-08-03T21:29:45.816Z,5.03
2018-08-03T21:32:13.588Z,3.12
2018-08-03T21:34:42.327Z,4.50
2018-08-03T21:40:14.308Z,7.30
2018-08-03T21:42:42.061Z,5.05
2018-08-03T21:45:09.807Z,4.53
2018-08-03T21:47:38.596Z,2.58
2018-08-03T21:50:06.464Z,3.52
2018-08-03T21:52:37.854Z,2.05
2018-08-03T21:55:05.624Z,4.60
2018-08-03T21:57:33.428Z,3.17
2018-08-03T22:00:01.171Z,3.05
2018-08-03T22:02:28.955Z,2.30
2018-08-03T22:07:49.413Z,2.55
2018-08-03T22:10:17.208Z,2.40
2018-08-03T22:12:44.948Z,3.37
2018-08-03T22:15:13.734Z,2.90
2018-08-03T22:17:41.523Z,3.08
2018-08-03T22:20:09.335Z,3.25
2018-08-03T22:25:31.896Z,8.00
2018-08-03T22:27:59.657Z,4.70
2018-08-03T22:30:27.399Z,2.92
2018-08-03T22:32:59.030Z,4.25
2018-08-03T22:35:26.756Z,3.65
2018-08-03T22:37:55.518Z,3.98
2018-08-03T22:40:23.254Z,3.30
2018-08-03T22:42:51.055Z,3.77
2018-08-03T22:45:18.726Z,5.55
2018-08-03T22:47:47.509Z,2.67
2018-08-03T22:50:15.240Z,4.10
2018-08-03T22:52:42.967Z,2.90
2018-08-03T22:55:10.693Z,4.92
2018-08-03T22:57:38.451Z,3.00
2018-08-03T23:00:06.718Z,3.80
2018-08-03T23:02:34.443Z,2.65
2018-08-03T23:05:17.586Z,3.05
2018-08-03T23:07:45.509Z,6.05
2018-08-03T23:10:13.331Z,3.42
2018-08-03T23:12:41.070Z,3.72
2018-08-03T23:15:08.859Z,3.33
2018-08-03T23:17:36.893Z,2.67
2018-08-03T23:20:05.030Z,4.65
2018-08-03T23:22:32.765Z,4.05
2018-08-03T23:25:00.510Z,4.60
2018-08-03T23:27:28.411Z,3.33
2018-08-03T23:29:56.147Z,4.33
2018-08-03T23:32:23.949Z,5.97
2018-08-03T23:34:51.695Z,5.03
2018-08-03T23:37:19.434Z,5.40
2018-08-03T23:39:47.179Z,4.33
2018-08-03T23:42:14.925Z,3.58
2018-08-03T23:44:42.698Z,4.08
2018-08-03T23:47:11.416Z,4.22
2018-08-03T23:50:20.250Z,4.87
2018-08-03T23:52:48.885Z,4.42
2018-08-03T23:55:16.699Z,5.60
2018-08-03T23:57:44.818Z,5.08
